• Join FlightAware (Why Join?)
  • Login
  • US Flag 
09:31AM EST


 

Airport Tracker/Info


-or-


 

Live Flight TrackerFlight Track Log ✈ N960DL ✈ 02-May-2013 ✈ KCHS - KATL

Flight Track Log - Related Links

Times and Time Zones

All times are in EDT time to prevent confusion due to time zone crossing. See the N960DL flight status page for this flight to view local times or setup timezone preferences in your user account.

Time Position Orientation Groundspeed Altitude Reporting Facility
EDT Latitude Longitude Course Direction KTS MPH feet Rate Location/Type
09:15AM 32.9333 -80.3757 270° West  Level FlightAware Approximate
09:15AM 32.9467 -80.2389 257° West 320 368 6,900  Level Jacksonville Center
09:16AM 32.9333 -80.5022 270° West  Level FlightAware Approximate
09:16AM 32.9425 -80.3406 267° West 320 368 9,800  Level Jacksonville Center
09:17AM 32.9435 -80.6280 276° West  Level FlightAware Approximate
09:17AM 32.9406 -80.4544 269° West 334 384 11,400  Level Jacksonville Center
09:18AM 32.9549 -80.7537 276° West  Level FlightAware Approximate
09:18AM 32.9472 -80.5881 273° West 370 426 13,800  Level Jacksonville Center
09:19AM 32.9663 -80.8795 276° West  Level FlightAware Approximate
09:19AM 32.9600 -80.7264 276° West 403 464 16,400  Level Jacksonville Center
09:20AM 32.9429 -81.0026 257° West  Level FlightAware Approximate
09:20AM 32.9708 -80.8697 275° West 428 493 18,500  Level Jacksonville Center
09:21AM 32.9182 -81.1256 257° West  Level FlightAware Approximate
09:21AM 32.9522 -81.0136 261° West 433 498 20,400  Level Jacksonville Center
09:22AM 32.9208 -81.1603 256° West 451 519 20,000 -900 Descending Jacksonville Center
09:23AM 32.8914 -81.3044 256° West 451 519 18,700 -720 Descending Jacksonville Center
09:25AM 32.8325 -81.5792 256° West 439 505 18,000 -300 Descending Atlanta Center
09:26AM 32.7997 -81.7208 255° West 439 505 18,000  Level Atlanta Center
09:27AM 32.7689 -81.8650 256° West 439 505 18,000  Level Atlanta Center
09:28AM 32.7631 -82.0108 267° West 439 505 18,000  Level Atlanta Center
09:29AM 32.7986 -82.1508 287° West 434 499 18,000  Level Atlanta Center
09:30AM 32.8342 -82.2911 287° West 446 513 18,000  Level Atlanta Center
09:31AM 32.8694 -82.4264 287° West 446 513 18,000  Level Atlanta Center
09:32AM 32.9025 -82.5592 287° West 431 496 18,000  Level Atlanta Center
09:33AM 32.9331 -82.6850 286° West 410 472 18,000  Level Atlanta Center
09:34AM 32.9658 -82.8108 287° West 404 465 18,000  Level Atlanta Center
09:35AM 32.9983 -82.9367 287° West 398 458 18,000  Level Atlanta Center
09:36AM 33.0306 -83.0625 287° West 398 458 18,000  Level Atlanta Center
09:37AM 33.0586 -83.1836 285° West 398 458 18,000  Level Atlanta Center
09:38AM 33.0908 -83.3075 287° West 398 458 18,000 -180 Level Atlanta Center
09:39AM 33.1186 -83.4286 285° West 393 452 17,700 -900 Descending Atlanta Center
09:40AM 33.1503 -83.5550 287° West 393 452 16,200 -1,740 Descending Atlanta Center
09:41AM 33.1800 -83.6764 286° West 393 452 14,300 -1,740 Descending Atlanta Center
09:41AM 33.1833 -83.7167 276° West 378 435 14,000 -240 Descending Atlanta TRACON
09:42AM 33.2333 -83.8167 301° West 360 414 14,000 -240 Level Atlanta TRACON
09:43AM 33.2833 -83.9000 306° West 343 395 13,600 -420 Descending Atlanta TRACON
09:44AM 33.3183 -83.9667 302° West 351 404 13,300 -600 Descending Atlanta Center
09:45AM 33.3789 -84.0586 308° West 339 390 12,600 -600 Descending Atlanta Center
09:46AM 33.4289 -84.1333 309° West 315 362 12,100 -300 Descending Atlanta Center
09:47AM 33.4811 -84.2106 309° West 299 344 12,000 -60 Descending Atlanta Center
09:48AM 33.5289 -84.2831 308° West 293 337 12,000 -480 Level Atlanta Center
09:49AM 33.5475 -84.3703 284° West 265 305 11,100 -1,200 Descending Atlanta Center
09:50AM 33.5472 -84.4550 270° West 265 305 9,600 -1,440 Descending Atlanta Center
09:51AM 33.5500 -84.5333 272° West 256 295 8,300 -1,440 Descending Atlanta TRACON
09:52AM 33.5500 -84.6167 270° West 244 281 6,800 -1,560 Descending Atlanta TRACON
09:53AM 33.5500 -84.7000 270° West 250 288 5,400 -1,020 Descending Atlanta TRACON
09:54AM 33.5500 -84.7667 270° West 212 244 4,900 -540 Descending Atlanta TRACON
09:55AM 33.5500 -84.8333 270° West 205 236 4,400 -480 Descending Atlanta TRACON
09:56AM 33.5333 -84.9000 253° West 203 234 4,000 -240 Descending Atlanta TRACON
09:57AM 33.5667 -84.9500 309° West 214 246 4,000  Level Atlanta TRACON
09:58AM 33.6000 -84.9333 23° Northeast 169 194 4,000  Level Atlanta TRACON
09:59AM 33.6167 -84.8833 68° East 146 168 4,000  Level Atlanta TRACON
10:00AM 33.6167 -84.8333 90° East 141 162 4,000  Level Atlanta TRACON
10:01AM 33.6167 -84.7833 90° East 142 163 4,000  Level Atlanta TRACON
10:02AM 33.6167 -84.7500 90° East 142 163 4,000  Level Atlanta TRACON
10:03AM 33.6167 -84.7000 90° East 156 180 4,000  Level Atlanta TRACON
10:04AM 33.6167 -84.6333 90° East 161 185 4,000  Level Atlanta TRACON